»·PEaware :: N717SK KOLM-KSLE

N717SK :: KOLM-KSLE

FLIGHT INFORMATION

Flight Status: Arrived
Operator: Privately registered:
United States
More flights under this callsign
Pilot: Kamal S. (18764)
Aircraft: COLUMBIA 400
(COL4)
More flights by this aircraft type
Origin: KOLM Olympia
United States
Destination: KSLE McNary
United States
More flights between these airports :: More routes between these airports
Route: +YELM5 OLM V165 UBG
File this flight plan on PilotEdge
Remarks:
Altitude:
(Current/Filed)
9,000ft
Speed:
(Current/Filed)
130kts
Departed: 05-Jul-19 01:32 PM
Arrived: 05-Jul-19 02:37 PM
Distance/Time
Traveled:
124nm/1:05
Distance/Time
To Go:
Arrived

Flight Plot

Page will automatically refresh every two minutes.

Flight plan parsing failed; only flown route is shown


Map Options




Map Legend


Flown Route
Filed Route
Departure Airport
Arrival Airport
Navaid (VOR, NDB)
Fix

Horizontal Profiles

Position Reports

Time Latitude Longitude Heading Altitude Ground
Speed
05-Jul-19 13:15 46.973230 -122.894721 139 204ft 0kts
05-Jul-19 13:16 46.973230 -122.894721 139 204ft 0kts
05-Jul-19 13:17 46.973230 -122.894721 139 204ft 0kts
05-Jul-19 13:18 46.973230 -122.894721 139 204ft 0kts
05-Jul-19 13:19 46.973230 -122.894721 139 204ft 0kts
05-Jul-19 13:20 46.973230 -122.894721 139 204ft 0kts
05-Jul-19 13:21 46.973230 -122.894721 139 204ft 0kts
05-Jul-19 13:22 46.973230 -122.894721 139 204ft 0kts
05-Jul-19 13:23 46.973230 -122.894721 139 204ft 0kts
05-Jul-19 13:24 46.973230 -122.894721 139 204ft 0kts
05-Jul-19 13:25 46.973230 -122.894721 139 204ft 0kts
05-Jul-19 13:26 46.973215 -122.894724 234 204ft 0kts
05-Jul-19 13:27 46.973108 -122.894935 255 204ft 0kts
05-Jul-19 13:28 46.973358 -122.897150 320 200ft 14kts
05-Jul-19 13:29 46.976037 -122.900180 293 195ft 8kts
05-Jul-19 13:30 46.976150 -122.901345 276 195ft 0kts
05-Jul-19 13:31 46.964662 -122.904955 186 624ft 101kts
05-Jul-19 13:32 46.950642 -122.877171 74 2196ft 119kts
05-Jul-19 13:33 46.957495 -122.835331 80 4031ft 114kts
05-Jul-19 13:34 46.979022 -122.811761 344 5394ft 143kts
05-Jul-19 13:35 47.009491 -122.838344 267 6918ft 150kts
05-Jul-19 13:36 46.989281 -122.898058 192 7633ft 177kts
05-Jul-19 13:37 46.942711 -122.911672 196 8783ft 179kts
05-Jul-19 13:38 46.892887 -122.932280 194 9087ft 174kts
05-Jul-19 13:39 46.848692 -122.949513 193 9103ft 175kts
05-Jul-19 13:40 46.799276 -122.968740 194 8834ft 196kts
05-Jul-19 13:41 46.747208 -122.988988 194 8814ft 189kts
05-Jul-19 13:42 46.696015 -123.008833 194 8817ft 192kts
05-Jul-19 13:43 46.643707 -123.029085 194 8811ft 190kts
05-Jul-19 13:44 46.589911 -123.049863 194 8817ft 203kts
05-Jul-19 13:45 46.534483 -123.071240 194 8816ft 206kts
05-Jul-19 13:46 46.478581 -123.092601 193 8815ft 206kts
05-Jul-19 13:47 46.421321 -123.096202 175 8816ft 206kts
05-Jul-19 13:48 46.365881 -123.090421 175 8812ft 186kts
05-Jul-19 13:49 46.315493 -123.084896 175 8815ft 177kts
05-Jul-19 13:50 46.266676 -123.079561 175 8816ft 174kts
05-Jul-19 13:51 46.218241 -123.074149 175 8808ft 172kts
05-Jul-19 13:52 46.169942 -123.068723 175 8817ft 174kts
05-Jul-19 13:53 46.121229 -123.063256 175 8817ft 175kts
05-Jul-19 13:54 46.073264 -123.057880 175 8817ft 175kts
05-Jul-19 13:55 46.024206 -123.052392 175 8817ft 176kts
05-Jul-19 13:56 45.975090 -123.046907 175 8818ft 176kts
05-Jul-19 13:57 45.925702 -123.041401 175 8816ft 176kts
05-Jul-19 13:58 45.876620 -123.035937 175 8812ft 171kts
05-Jul-19 13:59 45.830687 -123.030813 175 8815ft 161kts
05-Jul-19 14:00 45.783400 -123.025589 175 8825ft 187kts
05-Jul-19 14:01 45.728510 -123.019550 175 8818ft 201kts
05-Jul-19 14:02 45.675457 -123.013664 175 8811ft 177kts
05-Jul-19 14:03 45.623864 -123.007979 175 8818ft 190kts
05-Jul-19 14:04 45.570225 -123.002085 175 8813ft 189kts
05-Jul-19 14:05 45.520686 -122.996606 175 8814ft 169kts
05-Jul-19 14:06 45.473551 -122.991452 175 7799ft 183kts
05-Jul-19 14:07 45.421453 -122.991483 180 5908ft 181kts
05-Jul-19 14:08 45.373320 -122.992442 180 5021ft 172kts
05-Jul-19 14:09 45.326224 -122.987811 156 5021ft 169kts
05-Jul-19 14:10 45.282342 -122.959079 155 4838ft 175kts
05-Jul-19 14:11 45.238782 -122.930413 155 4807ft 159kts
05-Jul-19 14:12 45.200920 -122.905390 155 4839ft 166kts
05-Jul-19 14:13 45.152266 -122.873549 155 4813ft 196kts
05-Jul-19 14:14 45.104763 -122.842336 155 4815ft 181kts
05-Jul-19 14:15 45.058577 -122.811998 155 4825ft 192kts
05-Jul-19 14:16 45.007125 -122.778334 155 4818ft 207kts
05-Jul-19 14:17 44.958372 -122.746400 154 4818ft 191kts
05-Jul-19 14:18 44.909450 -122.714272 154 4817ft 194kts
05-Jul-19 14:19 44.859766 -122.681710 154 4817ft 195kts
05-Jul-19 14:20 44.810351 -122.649328 154 4816ft 195kts
05-Jul-19 14:21 44.760854 -122.616897 154 4816ft 195kts
05-Jul-19 14:22 44.714593 -122.581078 135 4817ft 181kts
05-Jul-19 14:23 44.677855 -122.555442 223 4807ft 146kts
05-Jul-19 14:24 44.675447 -122.607097 274 4813ft 128kts
05-Jul-19 14:25 44.678129 -122.655983 274 4815ft 121kts
05-Jul-19 14:26 44.677369 -122.701864 237 4818ft 117kts
05-Jul-19 14:27 44.660205 -122.740153 266 4814ft 115kts
05-Jul-19 14:28 44.673439 -122.785324 295 4065ft 135kts
05-Jul-19 14:29 44.699758 -122.823668 322 3767ft 134kts
05-Jul-19 14:30 44.731170 -122.856215 339 3956ft 149kts
05-Jul-19 14:31 44.767587 -122.886750 324 3409ft 138kts
05-Jul-19 14:32 44.790656 -122.904540 326 2984ft 114kts
05-Jul-19 14:33 44.793519 -122.907101 329 2908ft 112kts
05-Jul-19 14:34 44.865611 -122.967152 331 1923ft 145kts
05-Jul-19 14:35 44.891344 -122.986177 332 1099ft 98kts
05-Jul-19 14:36 44.910098 -123.001561 342 204ft 26kts
05-Jul-19 14:37 44.911407 -123.000348 28 206ft 7kts

Navigation Log

Ident Type
Flight plan parsing failed, navigation log unavailable